sensor_id;sensor_type;location;lat;lon;timestamp;P1;durP1;ratioP1;P2;durP2;ratioP2
75261;SDS011;63859;51.064;4.580;2023-07-29T00:01:42;2.65;;;1.60;;
75261;SDS011;63859;51.064;4.580;2023-07-29T00:04:08;1.65;;;1.55;;
75261;SDS011;63859;51.064;4.580;2023-07-29T00:06:34;3.22;;;1.50;;
75261;SDS011;63859;51.064;4.580;2023-07-29T00:09:01;3.60;;;1.33;;
75261;SDS011;63859;51.064;4.580;2023-07-29T00:11:27;1.60;;;1.50;;
75261;SDS011;63859;51.064;4.580;2023-07-29T00:13:53;1.85;;;1.38;;
75261;SDS011;63859;51.064;4.580;2023-07-29T00:16:19;1.58;;;1.45;;
75261;SDS011;63859;51.064;4.580;2023-07-29T00:18:47;4.53;;;1.42;;
75261;SDS011;63859;51.064;4.580;2023-07-29T00:21:13;3.90;;;1.58;;
75261;SDS011;63859;51.064;4.580;2023-07-29T00:23:38;3.22;;;1.30;;
75261;SDS011;63859;51.064;4.580;2023-07-29T00:26:04;6.03;;;1.60;;
75261;SDS011;63859;51.064;4.580;2023-07-29T00:28:30;2.00;;;1.33;;
75261;SDS011;63859;51.064;4.580;2023-07-29T00:30:56;2.97;;;1.85;;
75261;SDS011;63859;51.064;4.580;2023-07-29T00:33:21;2.08;;;1.40;;
75261;SDS011;63859;51.064;4.580;2023-07-29T00:35:47;1.95;;;1.73;;
75261;SDS011;63859;51.064;4.580;2023-07-29T00:38:13;3.25;;;1.63;;
75261;SDS011;63859;51.064;4.580;2023-07-29T00:40:38;1.75;;;1.60;;
75261;SDS011;63859;51.064;4.580;2023-07-29T00:43:04;4.25;;;1.73;;
75261;SDS011;63859;51.064;4.580;2023-07-29T00:45:30;3.08;;;1.70;;
75261;SDS011;63859;51.064;4.580;2023-07-29T00:47:57;2.53;;;1.40;;
75261;SDS011;63859;51.064;4.580;2023-07-29T00:50:24;2.65;;;1.67;;
75261;SDS011;63859;51.064;4.580;2023-07-29T00:52:52;4.18;;;1.65;;
75261;SDS011;63859;51.064;4.580;2023-07-29T00:55:19;2.67;;;1.67;;
75261;SDS011;63859;51.064;4.580;2023-07-29T00:57:45;3.85;;;1.80;;
75261;SDS011;63859;51.064;4.580;2023-07-29T01:00:14;3.63;;;1.90;;
75261;SDS011;63859;51.064;4.580;2023-07-29T01:02:42;4.00;;;1.55;;
75261;SDS011;63859;51.064;4.580;2023-07-29T01:05:08;2.92;;;1.58;;
75261;SDS011;63859;51.064;4.580;2023-07-29T01:13:13;2.30;;;1.90;;
75261;SDS011;63859;51.064;4.580;2023-07-29T01:15:55;3.83;;;2.20;;
75261;SDS011;63859;51.064;4.580;2023-07-29T01:18:26;3.90;;;1.90;;
75261;SDS011;63859;51.064;4.580;2023-07-29T01:20:59;2.28;;;1.83;;
75261;SDS011;63859;51.064;4.580;2023-07-29T01:23:31;3.03;;;1.85;;
75261;SDS011;63859;51.064;4.580;2023-07-29T01:25:58;1.80;;;1.70;;
75261;SDS011;63859;51.064;4.580;2023-07-29T01:28:24;1.95;;;1.80;;
75261;SDS011;63859;51.064;4.580;2023-07-29T01:30:51;2.10;;;1.90;;
75261;SDS011;63859;51.064;4.580;2023-07-29T01:33:40;2.70;;;1.83;;
75261;SDS011;63859;51.064;4.580;2023-07-29T01:36:15;2.97;;;1.98;;
75261;SDS011;63859;51.064;4.580;2023-07-29T01:38:47;2.25;;;1.90;;
75261;SDS011;63859;51.064;4.580;2023-07-29T01:41:14;2.53;;;2.30;;
75261;SDS011;63859;51.064;4.580;2023-07-29T01:43:42;6.32;;;4.32;;
75261;SDS011;63859;51.064;4.580;2023-07-29T01:46:11;3.58;;;2.63;;
75261;SDS011;63859;51.064;4.580;2023-07-29T01:48:37;11.32;;;2.35;;
75261;SDS011;63859;51.064;4.580;2023-07-29T01:51:03;3.80;;;2.40;;
75261;SDS011;63859;51.064;4.580;2023-07-29T01:53:30;2.33;;;1.90;;
75261;SDS011;63859;51.064;4.580;2023-07-29T01:55:55;3.60;;;2.17;;
75261;SDS011;63859;51.064;4.580;2023-07-29T01:58:22;2.33;;;2.00;;
75261;SDS011;63859;51.064;4.580;2023-07-29T02:00:48;3.80;;;2.33;;
75261;SDS011;63859;51.064;4.580;2023-07-29T02:03:13;2.15;;;1.90;;
75261;SDS011;63859;51.064;4.580;2023-07-29T02:05:39;3.05;;;2.08;;
75261;SDS011;63859;51.064;4.580;2023-07-29T02:08:06;6.85;;;2.35;;
75261;SDS011;63859;51.064;4.580;2023-07-29T02:10:32;2.80;;;2.47;;
75261;SDS011;63859;51.064;4.580;2023-07-29T02:12:57;2.78;;;2.20;;
75261;SDS011;63859;51.064;4.580;2023-07-29T02:15:23;3.53;;;2.10;;
75261;SDS011;63859;51.064;4.580;2023-07-29T02:17:49;2.90;;;1.75;;
75261;SDS011;63859;51.064;4.580;2023-07-29T02:20:16;4.55;;;2.05;;
75261;SDS011;63859;51.064;4.580;2023-07-29T02:22:42;3.08;;;2.30;;
75261;SDS011;63859;51.064;4.580;2023-07-29T02:25:08;2.90;;;2.15;;
75261;SDS011;63859;51.064;4.580;2023-07-29T02:27:35;3.30;;;2.30;;
75261;SDS011;63859;51.064;4.580;2023-07-29T02:30:00;3.13;;;2.10;;
75261;SDS011;63859;51.064;4.580;2023-07-29T02:32:27;3.25;;;2.22;;
75261;SDS011;63859;51.064;4.580;2023-07-29T02:34:52;3.17;;;2.10;;
75261;SDS011;63859;51.064;4.580;2023-07-29T02:37:18;5.68;;;2.58;;
75261;SDS011;63859;51.064;4.580;2023-07-29T02:39:44;3.95;;;2.90;;
75261;SDS011;63859;51.064;4.580;2023-07-29T02:42:10;3.60;;;2.40;;
75261;SDS011;63859;51.064;4.580;2023-07-29T02:44:36;2.70;;;2.20;;
75261;SDS011;63859;51.064;4.580;2023-07-29T02:47:01;4.93;;;2.70;;
75261;SDS011;63859;51.064;4.580;2023-07-29T02:49:27;3.95;;;2.63;;
75261;SDS011;63859;51.064;4.580;2023-07-29T02:51:53;2.60;;;2.08;;
75261;SDS011;63859;51.064;4.580;2023-07-29T02:54:18;5.70;;;2.75;;
75261;SDS011;63859;51.064;4.580;2023-07-29T02:56:44;3.95;;;2.28;;
75261;SDS011;63859;51.064;4.580;2023-07-29T02:59:09;5.07;;;2.40;;
75261;SDS011;63859;51.064;4.580;2023-07-29T03:01:35;4.57;;;2.88;;
75261;SDS011;63859;51.064;4.580;2023-07-29T03:04:01;4.57;;;2.38;;
75261;SDS011;63859;51.064;4.580;2023-07-29T03:06:26;3.38;;;2.20;;
75261;SDS011;63859;51.064;4.580;2023-07-29T03:08:52;4.45;;;2.28;;
75261;SDS011;63859;51.064;4.580;2023-07-29T03:11:17;7.57;;;2.30;;
75261;SDS011;63859;51.064;4.580;2023-07-29T03:13:43;4.20;;;2.20;;
75261;SDS011;63859;51.064;4.580;2023-07-29T03:16:16;3.78;;;2.05;;
75261;SDS011;63859;51.064;4.580;2023-07-29T03:18:43;3.28;;;2.20;;
75261;SDS011;63859;51.064;4.580;2023-07-29T03:21:09;5.18;;;2.38;;
75261;SDS011;63859;51.064;4.580;2023-07-29T03:23:36;3.40;;;2.50;;
75261;SDS011;63859;51.064;4.580;2023-07-29T03:26:02;3.78;;;2.45;;
75261;SDS011;63859;51.064;4.580;2023-07-29T03:28:35;2.75;;;2.17;;
75261;SDS011;63859;51.064;4.580;2023-07-29T03:31:05;4.13;;;2.30;;
75261;SDS011;63859;51.064;4.580;2023-07-29T03:33:31;4.65;;;2.70;;
75261;SDS011;63859;51.064;4.580;2023-07-29T03:35:57;3.72;;;2.13;;
75261;SDS011;63859;51.064;4.580;2023-07-29T03:38:22;3.05;;;2.47;;
75261;SDS011;63859;51.064;4.580;2023-07-29T03:40:48;5.20;;;2.47;;
75261;SDS011;63859;51.064;4.580;2023-07-29T03:43:15;3.92;;;3.00;;
75261;SDS011;63859;51.064;4.580;2023-07-29T03:45:41;3.10;;;2.40;;
75261;SDS011;63859;51.064;4.580;2023-07-29T03:48:06;2.72;;;2.33;;
75261;SDS011;63859;51.064;4.580;2023-07-29T03:50:35;3.05;;;2.60;;
75261;SDS011;63859;51.064;4.580;2023-07-29T03:53:02;3.05;;;2.10;;
75261;SDS011;63859;51.064;4.580;2023-07-29T03:55:28;5.63;;;2.10;;
75261;SDS011;63859;51.064;4.580;2023-07-29T03:57:55;4.60;;;2.42;;
75261;SDS011;63859;51.064;4.580;2023-07-29T04:00:24;4.80;;;2.20;;
75261;SDS011;63859;51.064;4.580;2023-07-29T04:02:50;2.67;;;2.08;;
75261;SDS011;63859;51.064;4.580;2023-07-29T04:05:16;6.20;;;2.53;;
75261;SDS011;63859;51.064;4.580;2023-07-29T04:07:42;8.15;;;2.60;;
75261;SDS011;63859;51.064;4.580;2023-07-29T04:10:08;9.88;;;2.80;;
75261;SDS011;63859;51.064;4.580;2023-07-29T04:12:34;2.90;;;2.20;;
75261;SDS011;63859;51.064;4.580;2023-07-29T04:14:59;3.17;;;2.28;;
75261;SDS011;63859;51.064;4.580;2023-07-29T04:17:25;3.15;;;2.60;;
75261;SDS011;63859;51.064;4.580;2023-07-29T04:19:51;3.92;;;2.40;;
75261;SDS011;63859;51.064;4.580;2023-07-29T04:22:16;3.17;;;2.40;;
75261;SDS011;63859;51.064;4.580;2023-07-29T04:24:42;2.28;;;2.08;;
75261;SDS011;63859;51.064;4.580;2023-07-29T04:27:08;3.63;;;2.00;;
75261;SDS011;63859;51.064;4.580;2023-07-29T04:29:33;3.72;;;2.08;;
75261;SDS011;63859;51.064;4.580;2023-07-29T04:32:01;5.95;;;2.40;;
75261;SDS011;63859;51.064;4.580;2023-07-29T04:34:29;3.13;;;2.10;;
75261;SDS011;63859;51.064;4.580;2023-07-29T04:36:55;3.22;;;2.15;;
75261;SDS011;63859;51.064;4.580;2023-07-29T04:39:21;5.28;;;1.83;;
75261;SDS011;63859;51.064;4.580;2023-07-29T04:41:47;4.13;;;2.67;;
75261;SDS011;63859;51.064;4.580;2023-07-29T04:44:12;2.78;;;2.58;;
75261;SDS011;63859;51.064;4.580;2023-07-29T04:46:38;2.50;;;2.22;;
75261;SDS011;63859;51.064;4.580;2023-07-29T04:49:04;3.53;;;2.13;;
75261;SDS011;63859;51.064;4.580;2023-07-29T04:51:29;2.83;;;2.17;;
75261;SDS011;63859;51.064;4.580;2023-07-29T04:53:56;3.95;;;2.45;;
75261;SDS011;63859;51.064;4.580;2023-07-29T04:56:23;3.50;;;2.55;;
75261;SDS011;63859;51.064;4.580;2023-07-29T04:58:48;3.40;;;2.60;;
75261;SDS011;63859;51.064;4.580;2023-07-29T05:01:14;4.20;;;2.13;;
75261;SDS011;63859;51.064;4.580;2023-07-29T05:03:40;6.32;;;2.22;;
75261;SDS011;63859;51.064;4.580;2023-07-29T05:06:05;7.85;;;2.30;;
75261;SDS011;63859;51.064;4.580;2023-07-29T05:08:31;3.58;;;2.40;;
75261;SDS011;63859;51.064;4.580;2023-07-29T05:10:57;4.38;;;2.50;;
75261;SDS011;63859;51.064;4.580;2023-07-29T05:13:23;6.38;;;2.45;;
75261;SDS011;63859;51.064;4.580;2023-07-29T05:15:49;3.63;;;2.17;;
75261;SDS011;63859;51.064;4.580;2023-07-29T05:18:15;4.80;;;2.42;;
75261;SDS011;63859;51.064;4.580;2023-07-29T05:20:41;4.88;;;2.20;;
75261;SDS011;63859;51.064;4.580;2023-07-29T05:23:07;5.10;;;2.58;;
75261;SDS011;63859;51.064;4.580;2023-07-29T05:25:32;4.97;;;2.15;;
75261;SDS011;63859;51.064;4.580;2023-07-29T05:28:01;5.90;;;2.30;;
75261;SDS011;63859;51.064;4.580;2023-07-29T05:30:27;2.20;;;2.00;;
75261;SDS011;63859;51.064;4.580;2023-07-29T05:32:56;2.13;;;1.90;;
75261;SDS011;63859;51.064;4.580;2023-07-29T05:35:25;3.65;;;2.13;;
75261;SDS011;63859;51.064;4.580;2023-07-29T05:37:51;5.43;;;3.00;;
75261;SDS011;63859;51.064;4.580;2023-07-29T05:40:16;5.50;;;2.10;;
75261;SDS011;63859;51.064;4.580;2023-07-29T05:42:42;2.42;;;2.08;;
75261;SDS011;63859;51.064;4.580;2023-07-29T05:45:09;4.32;;;2.42;;
75261;SDS011;63859;51.064;4.580;2023-07-29T05:47:35;6.00;;;2.28;;
75261;SDS011;63859;51.064;4.580;2023-07-29T05:50:01;3.85;;;2.17;;
75261;SDS011;63859;51.064;4.580;2023-07-29T05:52:29;3.58;;;2.40;;
75261;SDS011;63859;51.064;4.580;2023-07-29T05:54:55;4.90;;;2.25;;
75261;SDS011;63859;51.064;4.580;2023-07-29T05:57:21;2.80;;;2.08;;
75261;SDS011;63859;51.064;4.580;2023-07-29T05:59:46;3.05;;;1.90;;
75261;SDS011;63859;51.064;4.580;2023-07-29T06:02:12;2.92;;;2.22;;
75261;SDS011;63859;51.064;4.580;2023-07-29T06:04:37;4.53;;;1.98;;
75261;SDS011;63859;51.064;4.580;2023-07-29T06:07:03;2.85;;;2.08;;
75261;SDS011;63859;51.064;4.580;2023-07-29T06:09:29;3.83;;;2.40;;
75261;SDS011;63859;51.064;4.580;2023-07-29T06:11:55;3.67;;;1.80;;
75261;SDS011;63859;51.064;4.580;2023-07-29T06:14:21;2.75;;;2.05;;
75261;SDS011;63859;51.064;4.580;2023-07-29T06:16:46;3.40;;;2.03;;
75261;SDS011;63859;51.064;4.580;2023-07-29T06:19:12;2.30;;;2.08;;
75261;SDS011;63859;51.064;4.580;2023-07-29T06:21:38;3.80;;;2.10;;
75261;SDS011;63859;51.064;4.580;2023-07-29T06:24:04;3.53;;;1.80;;
75261;SDS011;63859;51.064;4.580;2023-07-29T06:26:29;2.38;;;1.85;;
75261;SDS011;63859;51.064;4.580;2023-07-29T06:28:55;2.92;;;1.98;;
75261;SDS011;63859;51.064;4.580;2023-07-29T06:31:20;3.28;;;2.10;;
75261;SDS011;63859;51.064;4.580;2023-07-29T06:33:47;2.72;;;1.90;;
75261;SDS011;63859;51.064;4.580;2023-07-29T06:36:12;5.15;;;2.00;;
75261;SDS011;63859;51.064;4.580;2023-07-29T06:38:38;1.80;;;1.70;;
75261;SDS011;63859;51.064;4.580;2023-07-29T06:41:04;2.00;;;1.80;;
75261;SDS011;63859;51.064;4.580;2023-07-29T06:43:30;5.45;;;2.03;;
75261;SDS011;63859;51.064;4.580;2023-07-29T06:45:56;3.67;;;1.92;;
75261;SDS011;63859;51.064;4.580;2023-07-29T06:48:21;2.53;;;1.75;;
75261;SDS011;63859;51.064;4.580;2023-07-29T06:50:47;3.67;;;1.70;;
75261;SDS011;63859;51.064;4.580;2023-07-29T06:53:15;2.60;;;1.50;;
75261;SDS011;63859;51.064;4.580;2023-07-29T06:55:40;2.03;;;1.70;;
75261;SDS011;63859;51.064;4.580;2023-07-29T06:58:06;2.97;;;1.90;;
75261;SDS011;63859;51.064;4.580;2023-07-29T07:00:32;1.60;;;1.50;;
75261;SDS011;63859;51.064;4.580;2023-07-29T07:02:58;1.83;;;1.60;;
75261;SDS011;63859;51.064;4.580;2023-07-29T07:05:23;2.35;;;1.88;;
75261;SDS011;63859;51.064;4.580;2023-07-29T07:07:49;1.50;;;1.40;;
75261;SDS011;63859;51.064;4.580;2023-07-29T07:10:15;2.40;;;1.80;;
75261;SDS011;63859;51.064;4.580;2023-07-29T07:12:41;2.75;;;1.58;;
75261;SDS011;63859;51.064;4.580;2023-07-29T07:15:06;2.20;;;1.30;;
75261;SDS011;63859;51.064;4.580;2023-07-29T07:17:32;1.50;;;1.40;;
75261;SDS011;63859;51.064;4.580;2023-07-29T07:19:58;3.72;;;1.73;;
75261;SDS011;63859;51.064;4.580;2023-07-29T07:22:24;3.00;;;1.58;;
75261;SDS011;63859;51.064;4.580;2023-07-29T07:24:49;7.82;;;1.70;;
75261;SDS011;63859;51.064;4.580;2023-07-29T07:27:15;2.20;;;1.73;;
75261;SDS011;63859;51.064;4.580;2023-07-29T07:29:41;1.48;;;1.38;;
75261;SDS011;63859;51.064;4.580;2023-07-29T07:32:06;3.53;;;1.60;;
75261;SDS011;63859;51.064;4.580;2023-07-29T07:34:32;2.30;;;1.70;;
75261;SDS011;63859;51.064;4.580;2023-07-29T07:36:59;1.95;;;1.60;;
75261;SDS011;63859;51.064;4.580;2023-07-29T07:39:25;2.25;;;1.45;;
75261;SDS011;63859;51.064;4.580;2023-07-29T07:41:51;1.38;;;1.25;;
75261;SDS011;63859;51.064;4.580;2023-07-29T07:44:16;1.80;;;1.55;;
75261;SDS011;63859;51.064;4.580;2023-07-29T07:46:44;1.95;;;1.35;;
75261;SDS011;63859;51.064;4.580;2023-07-29T07:49:10;2.10;;;1.40;;
75261;SDS011;63859;51.064;4.580;2023-07-29T07:51:36;4.90;;;1.60;;
75261;SDS011;63859;51.064;4.580;2023-07-29T07:54:01;4.30;;;1.75;;
75261;SDS011;63859;51.064;4.580;2023-07-29T07:56:27;3.35;;;1.55;;
75261;SDS011;63859;51.064;4.580;2023-07-29T07:58:53;2.22;;;1.60;;
75261;SDS011;63859;51.064;4.580;2023-07-29T08:01:18;2.88;;;1.40;;
75261;SDS011;63859;51.064;4.580;2023-07-29T08:03:44;1.90;;;1.20;;
75261;SDS011;63859;51.064;4.580;2023-07-29T08:06:10;3.88;;;1.60;;
75261;SDS011;63859;51.064;4.580;2023-07-29T08:08:35;3.42;;;1.92;;
75261;SDS011;63859;51.064;4.580;2023-07-29T08:11:01;2.75;;;1.55;;
75261;SDS011;63859;51.064;4.580;2023-07-29T08:13:27;1.50;;;1.38;;
75261;SDS011;63859;51.064;4.580;2023-07-29T08:15:52;3.92;;;1.50;;
75261;SDS011;63859;51.064;4.580;2023-07-29T08:18:18;3.47;;;2.13;;
75261;SDS011;63859;51.064;4.580;2023-07-29T08:20:54;1.85;;;1.50;;
75261;SDS011;63859;51.064;4.580;2023-07-29T08:23:23;2.55;;;1.75;;
75261;SDS011;63859;51.064;4.580;2023-07-29T08:25:55;2.05;;;1.50;;
75261;SDS011;63859;51.064;4.580;2023-07-29T08:28:26;1.58;;;1.30;;
75261;SDS011;63859;51.064;4.580;2023-07-29T08:31:02;2.65;;;1.40;;
75261;SDS011;63859;51.064;4.580;2023-07-29T08:33:28;2.85;;;1.23;;
75261;SDS011;63859;51.064;4.580;2023-07-29T08:35:54;4.32;;;1.48;;
75261;SDS011;63859;51.064;4.580;2023-07-29T08:38:20;1.50;;;1.40;;
75261;SDS011;63859;51.064;4.580;2023-07-29T08:40:50;2.15;;;1.63;;
75261;SDS011;63859;51.064;4.580;2023-07-29T08:43:22;3.40;;;1.20;;
75261;SDS011;63859;51.064;4.580;2023-07-29T08:45:56;2.15;;;1.42;;
75261;SDS011;63859;51.064;4.580;2023-07-29T08:48:32;2.03;;;1.63;;
75261;SDS011;63859;51.064;4.580;2023-07-29T08:51:03;1.50;;;1.40;;
75261;SDS011;63859;51.064;4.580;2023-07-29T08:53:29;4.40;;;1.60;;
75261;SDS011;63859;51.064;4.580;2023-07-29T08:55:56;1.77;;;1.67;;
75261;SDS011;63859;51.064;4.580;2023-07-29T08:58:25;3.10;;;1.30;;
75261;SDS011;63859;51.064;4.580;2023-07-29T09:00:52;2.08;;;1.50;;
75261;SDS011;63859;51.064;4.580;2023-07-29T09:03:18;2.95;;;1.60;;
75261;SDS011;63859;51.064;4.580;2023-07-29T09:05:45;3.67;;;1.92;;
75261;SDS011;63859;51.064;4.580;2023-07-29T09:08:11;3.15;;;1.85;;
75261;SDS011;63859;51.064;4.580;2023-07-29T09:10:37;2.35;;;1.42;;
75261;SDS011;63859;51.064;4.580;2023-07-29T09:13:03;3.85;;;1.77;;
75261;SDS011;63859;51.064;4.580;2023-07-29T09:15:33;2.45;;;1.48;;
75261;SDS011;63859;51.064;4.580;2023-07-29T09:17:59;2.78;;;1.88;;
75261;SDS011;63859;51.064;4.580;2023-07-29T09:20:36;1.88;;;1.60;;
75261;SDS011;63859;51.064;4.580;2023-07-29T09:23:02;4.97;;;2.05;;
75261;SDS011;63859;51.064;4.580;2023-07-29T09:25:28;3.13;;;1.88;;
75261;SDS011;63859;51.064;4.580;2023-07-29T09:28:00;3.53;;;1.80;;
75261;SDS011;63859;51.064;4.580;2023-07-29T09:30:27;5.13;;;2.08;;
75261;SDS011;63859;51.064;4.580;2023-07-29T09:32:56;3.03;;;1.80;;
75261;SDS011;63859;51.064;4.580;2023-07-29T09:35:23;2.95;;;1.90;;
75261;SDS011;63859;51.064;4.580;2023-07-29T09:37:50;3.13;;;1.90;;
75261;SDS011;63859;51.064;4.580;2023-07-29T09:40:16;2.88;;;2.10;;
75261;SDS011;63859;51.064;4.580;2023-07-29T09:42:50;4.00;;;1.92;;
75261;SDS011;63859;51.064;4.580;2023-07-29T09:45:26;5.53;;;2.03;;
75261;SDS011;63859;51.064;4.580;2023-07-29T09:47:52;1.92;;;1.67;;
75261;SDS011;63859;51.064;4.580;2023-07-29T09:50:19;3.95;;;1.90;;
75261;SDS011;63859;51.064;4.580;2023-07-29T09:52:52;4.28;;;2.15;;
75261;SDS011;63859;51.064;4.580;2023-07-29T09:55:22;2.42;;;1.70;;
75261;SDS011;63859;51.064;4.580;2023-07-29T09:57:52;4.85;;;2.22;;
75261;SDS011;63859;51.064;4.580;2023-07-29T10:00:19;2.00;;;1.90;;
75261;SDS011;63859;51.064;4.580;2023-07-29T10:02:45;3.42;;;1.90;;
75261;SDS011;63859;51.064;4.580;2023-07-29T10:05:11;2.00;;;1.80;;
75261;SDS011;63859;51.064;4.580;2023-07-29T10:07:37;2.28;;;2.08;;
75261;SDS011;63859;51.064;4.580;2023-07-29T10:10:04;2.58;;;1.90;;
75261;SDS011;63859;51.064;4.580;2023-07-29T10:12:31;3.45;;;2.10;;
75261;SDS011;63859;51.064;4.580;2023-07-29T10:14:58;3.60;;;1.98;;
75261;SDS011;63859;51.064;4.580;2023-07-29T10:17:26;2.85;;;1.80;;
75261;SDS011;63859;51.064;4.580;2023-07-29T10:19:52;2.03;;;1.83;;
75261;SDS011;63859;51.064;4.580;2023-07-29T10:22:21;3.13;;;2.00;;
75261;SDS011;63859;51.064;4.580;2023-07-29T10:24:49;2.80;;;1.90;;
75261;SDS011;63859;51.064;4.580;2023-07-29T10:27:17;2.70;;;1.80;;
75261;SDS011;63859;51.064;4.580;2023-07-29T10:29:44;2.83;;;1.80;;
75261;SDS011;63859;51.064;4.580;2023-07-29T10:32:11;4.57;;;1.95;;
75261;SDS011;63859;51.064;4.580;2023-07-29T10:34:37;3.08;;;2.00;;
75261;SDS011;63859;51.064;4.580;2023-07-29T10:37:03;1.90;;;1.70;;
75261;SDS011;63859;51.064;4.580;2023-07-29T10:39:39;4.72;;;2.08;;
75261;SDS011;63859;51.064;4.580;2023-07-29T10:42:06;3.22;;;1.90;;
75261;SDS011;63859;51.064;4.580;2023-07-29T10:47:21;3.92;;;2.20;;
75261;SDS011;63859;51.064;4.580;2023-07-29T10:49:56;2.22;;;1.58;;
75261;SDS011;63859;51.064;4.580;2023-07-29T10:52:30;2.60;;;1.75;;
75261;SDS011;63859;51.064;4.580;2023-07-29T10:54:55;3.03;;;1.60;;
75261;SDS011;63859;51.064;4.580;2023-07-29T10:57:33;2.00;;;1.75;;
75261;SDS011;63859;51.064;4.580;2023-07-29T11:00:00;2.00;;;1.80;;
75261;SDS011;63859;51.064;4.580;2023-07-29T11:02:37;2.25;;;1.70;;
75261;SDS011;63859;51.064;4.580;2023-07-29T11:05:07;5.22;;;2.13;;
75261;SDS011;63859;51.064;4.580;2023-07-29T11:07:44;4.93;;;1.92;;
75261;SDS011;63859;51.064;4.580;2023-07-29T11:10:13;3.22;;;2.10;;
75261;SDS011;63859;51.064;4.580;2023-07-29T11:12:41;2.25;;;1.90;;
75261;SDS011;63859;51.064;4.580;2023-07-29T11:15:13;2.63;;;1.70;;
75261;SDS011;63859;51.064;4.580;2023-07-29T11:17:40;4.05;;;2.10;;
75261;SDS011;63859;51.064;4.580;2023-07-29T11:20:08;2.92;;;1.77;;
75261;SDS011;63859;51.064;4.580;2023-07-29T11:22:34;5.25;;;2.35;;
75261;SDS011;63859;51.064;4.580;2023-07-29T11:25:00;4.05;;;2.00;;
75261;SDS011;63859;51.064;4.580;2023-07-29T11:27:26;2.75;;;1.85;;
75261;SDS011;63859;51.064;4.580;2023-07-29T11:29:59;3.63;;;2.05;;
75261;SDS011;63859;51.064;4.580;2023-07-29T11:32:27;4.05;;;1.80;;
75261;SDS011;63859;51.064;4.580;2023-07-29T11:34:53;5.78;;;2.08;;
75261;SDS011;63859;51.064;4.580;2023-07-29T11:37:18;4.68;;;2.20;;
75261;SDS011;63859;51.064;4.580;2023-07-29T11:39:45;2.72;;;2.00;;
75261;SDS011;63859;51.064;4.580;2023-07-29T11:42:12;15.98;;;3.58;;
75261;SDS011;63859;51.064;4.580;2023-07-29T11:44:38;3.90;;;2.50;;
75261;SDS011;63859;51.064;4.580;2023-07-29T11:47:07;5.43;;;2.75;;
75261;SDS011;63859;51.064;4.580;2023-07-29T11:49:34;3.67;;;3.25;;
75261;SDS011;63859;51.064;4.580;2023-07-29T11:52:01;6.07;;;3.10;;
75261;SDS011;63859;51.064;4.580;2023-07-29T11:54:28;5.18;;;3.30;;
75261;SDS011;63859;51.064;4.580;2023-07-29T11:56:54;5.15;;;3.50;;
75261;SDS011;63859;51.064;4.580;2023-07-29T11:59:21;6.80;;;3.30;;
75261;SDS011;63859;51.064;4.580;2023-07-29T12:01:46;4.20;;;2.95;;
75261;SDS011;63859;51.064;4.580;2023-07-29T12:04:12;5.57;;;3.40;;
75261;SDS011;63859;51.064;4.580;2023-07-29T12:06:39;7.28;;;3.25;;
75261;SDS011;63859;51.064;4.580;2023-07-29T12:09:05;6.07;;;2.60;;
75261;SDS011;63859;51.064;4.580;2023-07-29T12:11:32;2.92;;;2.55;;
75261;SDS011;63859;51.064;4.580;2023-07-29T12:13:59;3.20;;;2.83;;
75261;SDS011;63859;51.064;4.580;2023-07-29T12:16:25;5.90;;;2.90;;
75261;SDS011;63859;51.064;4.580;2023-07-29T12:18:51;3.38;;;2.58;;
75261;SDS011;63859;51.064;4.580;2023-07-29T12:21:17;2.90;;;2.53;;
75261;SDS011;63859;51.064;4.580;2023-07-29T12:23:44;3.03;;;2.40;;
75261;SDS011;63859;51.064;4.580;2023-07-29T12:26:09;2.35;;;2.15;;
75261;SDS011;63859;51.064;4.580;2023-07-29T12:28:35;2.47;;;2.20;;
75261;SDS011;63859;51.064;4.580;2023-07-29T12:31:01;3.08;;;2.30;;
75261;SDS011;63859;51.064;4.580;2023-07-29T12:33:33;2.42;;;1.90;;
75261;SDS011;63859;51.064;4.580;2023-07-29T12:36:00;2.25;;;2.00;;
75261;SDS011;63859;51.064;4.580;2023-07-29T12:38:27;2.30;;;2.10;;
75261;SDS011;63859;51.064;4.580;2023-07-29T12:40:53;1.40;;;1.30;;
75261;SDS011;63859;51.064;4.580;2023-07-29T12:43:19;1.42;;;1.30;;
75261;SDS011;63859;51.064;4.580;2023-07-29T12:45:45;1.70;;;1.40;;
75261;SDS011;63859;51.064;4.580;2023-07-29T12:48:11;1.95;;;1.50;;
75261;SDS011;63859;51.064;4.580;2023-07-29T12:50:37;1.65;;;1.40;;
75261;SDS011;63859;51.064;4.580;2023-07-29T12:53:05;4.03;;;1.50;;
75261;SDS011;63859;51.064;4.580;2023-07-29T12:55:31;3.15;;;1.40;;
75261;SDS011;63859;51.064;4.580;2023-07-29T12:57:57;2.22;;;1.67;;
75261;SDS011;63859;51.064;4.580;2023-07-29T13:00:24;2.20;;;1.45;;
75261;SDS011;63859;51.064;4.580;2023-07-29T13:02:50;1.52;;;1.42;;
75261;SDS011;63859;51.064;4.580;2023-07-29T13:05:16;2.38;;;1.60;;
75261;SDS011;63859;51.064;4.580;2023-07-29T13:07:41;1.67;;;1.58;;
75261;SDS011;63859;51.064;4.580;2023-07-29T13:10:08;1.60;;;1.50;;
75261;SDS011;63859;51.064;4.580;2023-07-29T13:12:34;3.38;;;1.45;;
75261;SDS011;63859;51.064;4.580;2023-07-29T13:15:00;1.50;;;1.40;;
75261;SDS011;63859;51.064;4.580;2023-07-29T13:17:26;1.35;;;1.27;;
75261;SDS011;63859;51.064;4.580;2023-07-29T13:19:51;1.42;;;1.15;;
75261;SDS011;63859;51.064;4.580;2023-07-29T13:22:17;1.65;;;1.25;;
75261;SDS011;63859;51.064;4.580;2023-07-29T13:24:44;1.50;;;1.40;;
75261;SDS011;63859;51.064;4.580;2023-07-29T13:27:10;4.28;;;1.50;;
75261;SDS011;63859;51.064;4.580;2023-07-29T13:29:36;1.52;;;1.42;;
75261;SDS011;63859;51.064;4.580;2023-07-29T13:32:01;1.73;;;1.60;;
75261;SDS011;63859;51.064;4.580;2023-07-29T13:34:27;2.65;;;1.50;;
75261;SDS011;63859;51.064;4.580;2023-07-29T13:36:53;1.95;;;1.50;;
75261;SDS011;63859;51.064;4.580;2023-07-29T13:39:18;2.60;;;1.60;;
75261;SDS011;63859;51.064;4.580;2023-07-29T13:41:44;1.55;;;1.45;;
75261;SDS011;63859;51.064;4.580;2023-07-29T13:44:10;1.75;;;1.38;;
75261;SDS011;63859;51.064;4.580;2023-07-29T13:46:35;3.03;;;1.30;;
75261;SDS011;63859;51.064;4.580;2023-07-29T13:49:01;2.08;;;1.55;;
75261;SDS011;63859;51.064;4.580;2023-07-29T13:51:28;2.55;;;1.85;;
75261;SDS011;63859;51.064;4.580;2023-07-29T13:53:53;1.50;;;1.40;;
75261;SDS011;63859;51.064;4.580;2023-07-29T13:56:21;2.60;;;1.65;;
75261;SDS011;63859;51.064;4.580;2023-07-29T13:58:47;1.90;;;1.80;;
75261;SDS011;63859;51.064;4.580;2023-07-29T14:01:12;2.65;;;1.90;;
75261;SDS011;63859;51.064;4.580;2023-07-29T14:03:38;2.10;;;1.90;;
75261;SDS011;63859;51.064;4.580;2023-07-29T14:06:03;1.80;;;1.70;;
75261;SDS011;63859;51.064;4.580;2023-07-29T14:08:29;1.80;;;1.70;;
75261;SDS011;63859;51.064;4.580;2023-07-29T14:10:55;1.75;;;1.65;;
75261;SDS011;63859;51.064;4.580;2023-07-29T14:13:21;2.00;;;1.80;;
75261;SDS011;63859;51.064;4.580;2023-07-29T14:15:46;1.60;;;1.50;;
75261;SDS011;63859;51.064;4.580;2023-07-29T14:18:12;1.60;;;1.50;;
75261;SDS011;63859;51.064;4.580;2023-07-29T14:20:38;1.90;;;1.80;;
75261;SDS011;63859;51.064;4.580;2023-07-29T14:23:04;2.28;;;1.60;;
75261;SDS011;63859;51.064;4.580;2023-07-29T14:25:29;1.70;;;1.60;;
75261;SDS011;63859;51.064;4.580;2023-07-29T14:27:55;2.05;;;1.95;;
75261;SDS011;63859;51.064;4.580;2023-07-29T14:30:21;2.75;;;1.90;;
75261;SDS011;63859;51.064;4.580;2023-07-29T14:32:46;2.10;;;1.90;;
75261;SDS011;63859;51.064;4.580;2023-07-29T14:35:12;2.13;;;1.77;;
75261;SDS011;63859;51.064;4.580;2023-07-29T14:37:37;2.13;;;1.88;;
75261;SDS011;63859;51.064;4.580;2023-07-29T14:40:03;2.00;;;1.90;;
75261;SDS011;63859;51.064;4.580;2023-07-29T14:42:30;1.90;;;1.80;;
75261;SDS011;63859;51.064;4.580;2023-07-29T14:44:55;1.80;;;1.70;;
75261;SDS011;63859;51.064;4.580;2023-07-29T14:47:21;2.08;;;1.88;;
75261;SDS011;63859;51.064;4.580;2023-07-29T14:49:47;2.50;;;1.90;;
75261;SDS011;63859;51.064;4.580;2023-07-29T14:52:12;3.65;;;1.88;;
75261;SDS011;63859;51.064;4.580;2023-07-29T14:54:38;2.42;;;1.95;;